sensor_id;sensor_type;location;lat;lon;timestamp;P1;durP1;ratioP1;P2;durP2;ratioP2
82475;SDS011;72099;43.176;76.872;2023-09-30T00:02:08;5.60;;;3.60;;
82475;SDS011;72099;43.176;76.872;2023-09-30T00:05:11;4.93;;;3.03;;
82475;SDS011;72099;43.176;76.872;2023-09-30T00:08:14;6.05;;;2.80;;
82475;SDS011;72099;43.176;76.872;2023-09-30T00:11:15;4.00;;;2.60;;
82475;SDS011;72099;43.176;76.872;2023-09-30T00:14:19;4.10;;;2.70;;
82475;SDS011;72099;43.176;76.872;2023-09-30T00:17:20;4.55;;;2.58;;
82475;SDS011;72099;43.176;76.872;2023-09-30T00:20:21;7.40;;;2.80;;
82475;SDS011;72099;43.176;76.872;2023-09-30T00:23:22;6.22;;;2.85;;
82475;SDS011;72099;43.176;76.872;2023-09-30T00:26:24;4.82;;;2.60;;
82475;SDS011;72099;43.176;76.872;2023-09-30T00:29:25;5.93;;;2.75;;
82475;SDS011;72099;43.176;76.872;2023-09-30T00:32:26;6.72;;;3.13;;
82475;SDS011;72099;43.176;76.872;2023-09-30T00:35:28;4.55;;;2.72;;
82475;SDS011;72099;43.176;76.872;2023-09-30T00:38:32;4.70;;;3.00;;
82475;SDS011;72099;43.176;76.872;2023-09-30T00:41:33;4.28;;;3.10;;
82475;SDS011;72099;43.176;76.872;2023-09-30T00:47:35;5.07;;;2.65;;
82475;SDS011;72099;43.176;76.872;2023-09-30T00:50:37;4.35;;;2.63;;
82475;SDS011;72099;43.176;76.872;2023-09-30T00:53:38;7.03;;;3.20;;
82475;SDS011;72099;43.176;76.872;2023-09-30T00:56:43;4.85;;;3.10;;
82475;SDS011;72099;43.176;76.872;2023-09-30T00:59:48;5.45;;;2.85;;
82475;SDS011;72099;43.176;76.872;2023-09-30T01:02:51;5.78;;;3.33;;
82475;SDS011;72099;43.176;76.872;2023-09-30T01:05:53;5.50;;;3.10;;
82475;SDS011;72099;43.176;76.872;2023-09-30T01:08:55;6.13;;;3.00;;
82475;SDS011;72099;43.176;76.872;2023-09-30T01:14:57;4.50;;;2.90;;
82475;SDS011;72099;43.176;76.872;2023-09-30T01:18:01;6.20;;;3.25;;
82475;SDS011;72099;43.176;76.872;2023-09-30T01:24:05;3.50;;;2.20;;
82475;SDS011;72099;43.176;76.872;2023-09-30T01:30:09;3.92;;;2.50;;
82475;SDS011;72099;43.176;76.872;2023-09-30T01:33:13;3.33;;;2.25;;
82475;SDS011;72099;43.176;76.872;2023-09-30T01:36:17;4.78;;;2.65;;
82475;SDS011;72099;43.176;76.872;2023-09-30T01:39:18;3.35;;;2.35;;
82475;SDS011;72099;43.176;76.872;2023-09-30T01:45:20;3.55;;;2.20;;
82475;SDS011;72099;43.176;76.872;2023-09-30T01:48:21;4.47;;;2.78;;
82475;SDS011;72099;43.176;76.872;2023-09-30T01:51:22;4.15;;;2.53;;
82475;SDS011;72099;43.176;76.872;2023-09-30T01:54:23;4.40;;;2.50;;
82475;SDS011;72099;43.176;76.872;2023-09-30T01:57:27;4.15;;;2.50;;
82475;SDS011;72099;43.176;76.872;2023-09-30T02:00:28;3.85;;;2.35;;
82475;SDS011;72099;43.176;76.872;2023-09-30T02:03:30;3.85;;;2.65;;
82475;SDS011;72099;43.176;76.872;2023-09-30T02:09:32;4.45;;;2.67;;
82475;SDS011;72099;43.176;76.872;2023-09-30T02:15:33;5.85;;;2.50;;
82475;SDS011;72099;43.176;76.872;2023-09-30T02:21:45;3.25;;;2.38;;
82475;SDS011;72099;43.176;76.872;2023-09-30T02:24:46;3.90;;;2.80;;
82475;SDS011;72099;43.176;76.872;2023-09-30T02:27:49;5.05;;;2.38;;
82475;SDS011;72099;43.176;76.872;2023-09-30T02:30:50;4.45;;;2.70;;
82475;SDS011;72099;43.176;76.872;2023-09-30T02:36:51;3.92;;;2.30;;
82475;SDS011;72099;43.176;76.872;2023-09-30T02:39:55;4.45;;;2.45;;
82475;SDS011;72099;43.176;76.872;2023-09-30T02:42:57;4.35;;;2.80;;
82475;SDS011;72099;43.176;76.872;2023-09-30T02:49:00;4.78;;;2.55;;
82475;SDS011;72099;43.176;76.872;2023-09-30T02:52:02;4.40;;;2.60;;
82475;SDS011;72099;43.176;76.872;2023-09-30T02:55:03;4.47;;;2.60;;
82475;SDS011;72099;43.176;76.872;2023-09-30T02:58:04;4.70;;;2.90;;
82475;SDS011;72099;43.176;76.872;2023-09-30T03:04:06;4.60;;;2.72;;
82475;SDS011;72099;43.176;76.872;2023-09-30T03:07:07;5.03;;;3.28;;
82475;SDS011;72099;43.176;76.872;2023-09-30T03:10:08;3.65;;;2.80;;
82475;SDS011;72099;43.176;76.872;2023-09-30T03:13:10;4.07;;;2.38;;
82475;SDS011;72099;43.176;76.872;2023-09-30T03:16:11;3.90;;;2.60;;
82475;SDS011;72099;43.176;76.872;2023-09-30T03:19:12;4.13;;;2.65;;
82475;SDS011;72099;43.176;76.872;2023-09-30T03:22:16;3.33;;;2.15;;
82475;SDS011;72099;43.176;76.872;2023-09-30T03:25:18;4.65;;;2.80;;
82475;SDS011;72099;43.176;76.872;2023-09-30T03:28:20;5.07;;;2.70;;
82475;SDS011;72099;43.176;76.872;2023-09-30T03:31:21;5.53;;;2.60;;
82475;SDS011;72099;43.176;76.872;2023-09-30T03:34:22;5.75;;;2.80;;
82475;SDS011;72099;43.176;76.872;2023-09-30T03:37:23;5.25;;;2.67;;
82475;SDS011;72099;43.176;76.872;2023-09-30T03:40:28;5.20;;;2.67;;
82475;SDS011;72099;43.176;76.872;2023-09-30T03:43:34;4.35;;;2.50;;
82475;SDS011;72099;43.176;76.872;2023-09-30T03:49:42;3.97;;;2.17;;
82475;SDS011;72099;43.176;76.872;2023-09-30T03:52:43;4.13;;;2.40;;
82475;SDS011;72099;43.176;76.872;2023-09-30T03:55:45;3.50;;;2.40;;
82475;SDS011;72099;43.176;76.872;2023-09-30T03:58:46;5.07;;;2.28;;
82475;SDS011;72099;43.176;76.872;2023-09-30T04:01:53;5.53;;;2.40;;
82475;SDS011;72099;43.176;76.872;2023-09-30T04:04:55;4.30;;;2.58;;
82475;SDS011;72099;43.176;76.872;2023-09-30T04:07:57;5.15;;;2.30;;
82475;SDS011;72099;43.176;76.872;2023-09-30T04:11:03;4.03;;;2.47;;
82475;SDS011;72099;43.176;76.872;2023-09-30T04:14:06;3.85;;;2.20;;
82475;SDS011;72099;43.176;76.872;2023-09-30T04:17:08;4.50;;;2.33;;
82475;SDS011;72099;43.176;76.872;2023-09-30T04:20:09;4.38;;;2.20;;
82475;SDS011;72099;43.176;76.872;2023-09-30T04:23:16;3.88;;;2.20;;
82475;SDS011;72099;43.176;76.872;2023-09-30T04:26:20;5.05;;;2.20;;
82475;SDS011;72099;43.176;76.872;2023-09-30T04:29:30;4.05;;;2.17;;
82475;SDS011;72099;43.176;76.872;2023-09-30T04:32:52;3.25;;;2.60;;
82475;SDS011;72099;43.176;76.872;2023-09-30T04:35:56;5.80;;;2.88;;
82475;SDS011;72099;43.176;76.872;2023-09-30T04:39:08;3.65;;;2.40;;
82475;SDS011;72099;43.176;76.872;2023-09-30T04:42:47;4.47;;;2.13;;
82475;SDS011;72099;43.176;76.872;2023-09-30T04:45:54;3.10;;;2.17;;
82475;SDS011;72099;43.176;76.872;2023-09-30T04:49:04;4.10;;;2.35;;
82475;SDS011;72099;43.176;76.872;2023-09-30T04:52:06;3.15;;;2.00;;
82475;SDS011;72099;43.176;76.872;2023-09-30T04:55:14;5.60;;;2.00;;
82475;SDS011;72099;43.176;76.872;2023-09-30T04:58:37;3.80;;;2.05;;
82475;SDS011;72099;43.176;76.872;2023-09-30T05:01:43;5.68;;;2.03;;
82475;SDS011;72099;43.176;76.872;2023-09-30T05:04:45;3.55;;;2.20;;
82475;SDS011;72099;43.176;76.872;2023-09-30T05:07:49;2.90;;;1.85;;
82475;SDS011;72099;43.176;76.872;2023-09-30T05:10:50;3.72;;;1.88;;
82475;SDS011;72099;43.176;76.872;2023-09-30T05:13:51;4.00;;;1.90;;
82475;SDS011;72099;43.176;76.872;2023-09-30T05:16:52;2.75;;;1.98;;
82475;SDS011;72099;43.176;76.872;2023-09-30T05:19:53;2.40;;;1.63;;
82475;SDS011;72099;43.176;76.872;2023-09-30T05:22:54;9.15;;;2.08;;
82475;SDS011;72099;43.176;76.872;2023-09-30T05:25:56;3.58;;;2.05;;
82475;SDS011;72099;43.176;76.872;2023-09-30T05:28:57;2.72;;;1.75;;
82475;SDS011;72099;43.176;76.872;2023-09-30T05:31:59;3.65;;;2.25;;
82475;SDS011;72099;43.176;76.872;2023-09-30T05:35:03;3.17;;;2.00;;
82475;SDS011;72099;43.176;76.872;2023-09-30T05:38:06;3.33;;;2.20;;
82475;SDS011;72099;43.176;76.872;2023-09-30T05:41:10;4.07;;;2.40;;
82475;SDS011;72099;43.176;76.872;2023-09-30T05:44:13;3.97;;;2.65;;
82475;SDS011;72099;43.176;76.872;2023-09-30T05:47:14;3.75;;;2.20;;
82475;SDS011;72099;43.176;76.872;2023-09-30T05:50:15;4.00;;;2.60;;
82475;SDS011;72099;43.176;76.872;2023-09-30T05:53:16;5.85;;;3.08;;
82475;SDS011;72099;43.176;76.872;2023-09-30T05:56:21;5.40;;;3.47;;
82475;SDS011;72099;43.176;76.872;2023-09-30T05:59:25;5.30;;;2.40;;
82475;SDS011;72099;43.176;76.872;2023-09-30T06:02:26;4.18;;;2.78;;
82475;SDS011;72099;43.176;76.872;2023-09-30T06:05:30;4.53;;;2.72;;
82475;SDS011;72099;43.176;76.872;2023-09-30T06:08:49;5.05;;;2.85;;
82475;SDS011;72099;43.176;76.872;2023-09-30T06:11:50;3.30;;;2.40;;
82475;SDS011;72099;43.176;76.872;2023-09-30T06:14:51;4.28;;;2.28;;
82475;SDS011;72099;43.176;76.872;2023-09-30T06:17:53;4.13;;;2.20;;
82475;SDS011;72099;43.176;76.872;2023-09-30T06:24:01;4.25;;;2.30;;
82475;SDS011;72099;43.176;76.872;2023-09-30T06:27:02;3.30;;;2.20;;
82475;SDS011;72099;43.176;76.872;2023-09-30T06:30:06;3.42;;;2.22;;
82475;SDS011;72099;43.176;76.872;2023-09-30T06:33:09;6.80;;;2.50;;
82475;SDS011;72099;43.176;76.872;2023-09-30T06:36:15;4.68;;;2.95;;
82475;SDS011;72099;43.176;76.872;2023-09-30T06:39:16;3.90;;;2.40;;
82475;SDS011;72099;43.176;76.872;2023-09-30T06:42:17;6.35;;;3.30;;
82475;SDS011;72099;43.176;76.872;2023-09-30T06:45:22;6.60;;;3.15;;
82475;SDS011;72099;43.176;76.872;2023-09-30T06:48:23;4.95;;;2.85;;
82475;SDS011;72099;43.176;76.872;2023-09-30T06:51:26;4.68;;;3.08;;
82475;SDS011;72099;43.176;76.872;2023-09-30T06:54:27;6.20;;;3.78;;
82475;SDS011;72099;43.176;76.872;2023-09-30T06:57:29;6.15;;;3.30;;
82475;SDS011;72099;43.176;76.872;2023-09-30T07:00:29;6.45;;;3.42;;
82475;SDS011;72099;43.176;76.872;2023-09-30T07:03:30;6.88;;;4.32;;
82475;SDS011;72099;43.176;76.872;2023-09-30T07:06:33;6.82;;;3.72;;
82475;SDS011;72099;43.176;76.872;2023-09-30T07:09:34;6.05;;;3.90;;
82475;SDS011;72099;43.176;76.872;2023-09-30T07:12:35;7.35;;;3.85;;
82475;SDS011;72099;43.176;76.872;2023-09-30T07:15:36;8.02;;;4.03;;
82475;SDS011;72099;43.176;76.872;2023-09-30T07:18:37;8.07;;;4.57;;
82475;SDS011;72099;43.176;76.872;2023-09-30T07:21:38;7.60;;;4.15;;
82475;SDS011;72099;43.176;76.872;2023-09-30T07:24:39;9.13;;;4.43;;
82475;SDS011;72099;43.176;76.872;2023-09-30T07:27:40;7.05;;;4.75;;
82475;SDS011;72099;43.176;76.872;2023-09-30T07:30:41;10.05;;;5.93;;
82475;SDS011;72099;43.176;76.872;2023-09-30T07:33:42;8.45;;;5.35;;
82475;SDS011;72099;43.176;76.872;2023-09-30T07:36:44;8.73;;;4.90;;
82475;SDS011;72099;43.176;76.872;2023-09-30T07:39:46;6.93;;;4.75;;
82475;SDS011;72099;43.176;76.872;2023-09-30T07:42:47;10.27;;;5.57;;
82475;SDS011;72099;43.176;76.872;2023-09-30T07:45:48;7.85;;;5.18;;
82475;SDS011;72099;43.176;76.872;2023-09-30T07:48:49;9.75;;;5.82;;
82475;SDS011;72099;43.176;76.872;2023-09-30T07:51:50;9.63;;;5.20;;
82475;SDS011;72099;43.176;76.872;2023-09-30T07:54:53;9.18;;;5.82;;
82475;SDS011;72099;43.176;76.872;2023-09-30T07:57:54;9.23;;;5.10;;
82475;SDS011;72099;43.176;76.872;2023-09-30T08:00:59;9.10;;;5.13;;
82475;SDS011;72099;43.176;76.872;2023-09-30T08:04:01;7.80;;;4.82;;
82475;SDS011;72099;43.176;76.872;2023-09-30T08:07:02;9.45;;;4.60;;
82475;SDS011;72099;43.176;76.872;2023-09-30T08:10:03;8.27;;;4.97;;
82475;SDS011;72099;43.176;76.872;2023-09-30T08:13:12;7.35;;;5.10;;
82475;SDS011;72099;43.176;76.872;2023-09-30T08:16:13;7.30;;;4.53;;
82475;SDS011;72099;43.176;76.872;2023-09-30T08:19:26;6.22;;;4.68;;
82475;SDS011;72099;43.176;76.872;2023-09-30T08:22:28;8.23;;;4.88;;
82475;SDS011;72099;43.176;76.872;2023-09-30T08:25:29;8.57;;;4.68;;
82475;SDS011;72099;43.176;76.872;2023-09-30T08:28:32;8.07;;;4.82;;
82475;SDS011;72099;43.176;76.872;2023-09-30T08:31:43;9.15;;;4.78;;
82475;SDS011;72099;43.176;76.872;2023-09-30T08:35:17;6.38;;;3.90;;
82475;SDS011;72099;43.176;76.872;2023-09-30T08:38:26;5.97;;;4.63;;
82475;SDS011;72099;43.176;76.872;2023-09-30T08:41:47;7.03;;;3.95;;
82475;SDS011;72099;43.176;76.872;2023-09-30T08:45:09;6.32;;;4.80;;
82475;SDS011;72099;43.176;76.872;2023-09-30T08:48:26;6.78;;;4.10;;
82475;SDS011;72099;43.176;76.872;2023-09-30T08:52:01;6.88;;;3.95;;
82475;SDS011;72099;43.176;76.872;2023-09-30T08:59:21;7.18;;;5.13;;
82475;SDS011;72099;43.176;76.872;2023-09-30T09:03:04;14.57;;;9.57;;
82475;SDS011;72099;43.176;76.872;2023-09-30T09:16:55;6.93;;;4.93;;
82475;SDS011;72099;43.176;76.872;2023-09-30T09:19:59;7.85;;;5.75;;
82475;SDS011;72099;43.176;76.872;2023-09-30T09:23:01;7.82;;;5.00;;
82475;SDS011;72099;43.176;76.872;2023-09-30T09:26:02;8.95;;;5.57;;
82475;SDS011;72099;43.176;76.872;2023-09-30T09:29:06;8.60;;;4.72;;
82475;SDS011;72099;43.176;76.872;2023-09-30T09:32:16;8.77;;;5.75;;
82475;SDS011;72099;43.176;76.872;2023-09-30T09:35:19;7.75;;;4.80;;
82475;SDS011;72099;43.176;76.872;2023-09-30T09:38:21;5.50;;;3.58;;
82475;SDS011;72099;43.176;76.872;2023-09-30T09:41:22;6.55;;;3.83;;
82475;SDS011;72099;43.176;76.872;2023-09-30T09:44:24;8.10;;;4.18;;
82475;SDS011;72099;43.176;76.872;2023-09-30T09:47:27;8.50;;;4.13;;
82475;SDS011;72099;43.176;76.872;2023-09-30T10:23:23;3.78;;;2.50;;
82475;SDS011;72099;43.176;76.872;2023-09-30T10:29:39;4.55;;;2.50;;
82475;SDS011;72099;43.176;76.872;2023-09-30T10:35:51;4.88;;;2.72;;
82475;SDS011;72099;43.176;76.872;2023-09-30T10:38:53;4.22;;;2.83;;
82475;SDS011;72099;43.176;76.872;2023-09-30T10:41:57;9.45;;;3.45;;
82475;SDS011;72099;43.176;76.872;2023-09-30T10:44:57;9.23;;;3.90;;
82475;SDS011;72099;43.176;76.872;2023-09-30T10:47:58;7.78;;;3.67;;
82475;SDS011;72099;43.176;76.872;2023-09-30T10:51:25;6.03;;;3.30;;
82475;SDS011;72099;43.176;76.872;2023-09-30T10:54:32;7.32;;;3.10;;
82475;SDS011;72099;43.176;76.872;2023-09-30T10:57:33;8.00;;;3.83;;
82475;SDS011;72099;43.176;76.872;2023-09-30T11:00:34;9.25;;;4.00;;
82475;SDS011;72099;43.176;76.872;2023-09-30T11:03:35;10.40;;;4.43;;
82475;SDS011;72099;43.176;76.872;2023-09-30T11:06:39;7.43;;;3.97;;
82475;SDS011;72099;43.176;76.872;2023-09-30T11:09:41;11.68;;;4.15;;
82475;SDS011;72099;43.176;76.872;2023-09-30T11:12:55;15.57;;;6.15;;
82475;SDS011;72099;43.176;76.872;2023-09-30T11:15:59;14.93;;;8.23;;
82475;SDS011;72099;43.176;76.872;2023-09-30T11:19:02;16.95;;;7.55;;
82475;SDS011;72099;43.176;76.872;2023-09-30T11:22:03;15.10;;;5.82;;
82475;SDS011;72099;43.176;76.872;2023-09-30T11:25:05;14.95;;;7.68;;
82475;SDS011;72099;43.176;76.872;2023-09-30T11:28:14;18.30;;;9.40;;
82475;SDS011;72099;43.176;76.872;2023-09-30T11:31:19;17.80;;;8.80;;
82475;SDS011;72099;43.176;76.872;2023-09-30T11:34:19;26.63;;;11.70;;
82475;SDS011;72099;43.176;76.872;2023-09-30T11:37:33;18.08;;;8.85;;
82475;SDS011;72099;43.176;76.872;2023-09-30T11:40:34;14.77;;;7.63;;
82475;SDS011;72099;43.176;76.872;2023-09-30T11:43:35;14.50;;;7.93;;
82475;SDS011;72099;43.176;76.872;2023-09-30T11:46:55;12.68;;;7.63;;
82475;SDS011;72099;43.176;76.872;2023-09-30T11:49:56;18.08;;;8.35;;
82475;SDS011;72099;43.176;76.872;2023-09-30T11:53:04;16.25;;;8.57;;
82475;SDS011;72099;43.176;76.872;2023-09-30T11:56:04;14.63;;;5.95;;
82475;SDS011;72099;43.176;76.872;2023-09-30T11:59:09;29.35;;;11.65;;
82475;SDS011;72099;43.176;76.872;2023-09-30T12:06:05;23.75;;;10.20;;
82475;SDS011;72099;43.176;76.872;2023-09-30T12:09:06;18.27;;;8.88;;
82475;SDS011;72099;43.176;76.872;2023-09-30T12:12:09;18.30;;;7.72;;
82475;SDS011;72099;43.176;76.872;2023-09-30T12:15:11;15.13;;;7.47;;
82475;SDS011;72099;43.176;76.872;2023-09-30T12:18:11;21.52;;;8.15;;
82475;SDS011;72099;43.176;76.872;2023-09-30T12:21:17;18.67;;;8.45;;
82475;SDS011;72099;43.176;76.872;2023-09-30T12:24:20;20.80;;;8.25;;
82475;SDS011;72099;43.176;76.872;2023-09-30T12:27:21;17.73;;;8.45;;
82475;SDS011;72099;43.176;76.872;2023-09-30T12:30:22;17.65;;;8.73;;
82475;SDS011;72099;43.176;76.872;2023-09-30T12:33:23;18.13;;;8.80;;
82475;SDS011;72099;43.176;76.872;2023-09-30T12:36:24;18.23;;;8.75;;
82475;SDS011;72099;43.176;76.872;2023-09-30T12:39:25;17.13;;;8.52;;
82475;SDS011;72099;43.176;76.872;2023-09-30T12:42:26;12.65;;;6.28;;
82475;SDS011;72099;43.176;76.872;2023-09-30T12:45:28;11.20;;;6.18;;
82475;SDS011;72099;43.176;76.872;2023-09-30T12:48:29;10.95;;;5.63;;
82475;SDS011;72099;43.176;76.872;2023-09-30T12:51:30;13.75;;;6.50;;
82475;SDS011;72099;43.176;76.872;2023-09-30T12:54:32;15.25;;;6.22;;
82475;SDS011;72099;43.176;76.872;2023-09-30T12:57:33;12.95;;;6.38;;
82475;SDS011;72099;43.176;76.872;2023-09-30T13:00:36;11.32;;;6.03;;
82475;SDS011;72099;43.176;76.872;2023-09-30T13:03:37;13.00;;;5.88;;
82475;SDS011;72099;43.176;76.872;2023-09-30T13:06:39;15.48;;;6.70;;
82475;SDS011;72099;43.176;76.872;2023-09-30T13:09:41;20.02;;;7.05;;
82475;SDS011;72099;43.176;76.872;2023-09-30T13:12:42;15.68;;;7.65;;
82475;SDS011;72099;43.176;76.872;2023-09-30T13:15:43;17.02;;;7.70;;
82475;SDS011;72099;43.176;76.872;2023-09-30T13:18:44;15.60;;;7.47;;
82475;SDS011;72099;43.176;76.872;2023-09-30T13:21:45;20.50;;;8.32;;
82475;SDS011;72099;43.176;76.872;2023-09-30T13:24:47;19.73;;;9.02;;
82475;SDS011;72099;43.176;76.872;2023-09-30T13:27:48;14.48;;;7.85;;
82475;SDS011;72099;43.176;76.872;2023-09-30T13:30:49;17.52;;;8.75;;
82475;SDS011;72099;43.176;76.872;2023-09-30T13:33:52;20.83;;;8.95;;
82475;SDS011;72099;43.176;76.872;2023-09-30T13:36:54;17.88;;;8.70;;
82475;SDS011;72099;43.176;76.872;2023-09-30T13:39:57;15.60;;;8.18;;
82475;SDS011;72099;43.176;76.872;2023-09-30T13:42:58;17.20;;;7.60;;
82475;SDS011;72099;43.176;76.872;2023-09-30T13:46:03;14.57;;;6.55;;
82475;SDS011;72099;43.176;76.872;2023-09-30T13:49:06;13.43;;;7.32;;
82475;SDS011;72099;43.176;76.872;2023-09-30T13:52:08;10.35;;;5.90;;
82475;SDS011;72099;43.176;76.872;2023-09-30T13:55:09;9.95;;;5.18;;
82475;SDS011;72099;43.176;76.872;2023-09-30T13:58:10;11.68;;;5.13;;
82475;SDS011;72099;43.176;76.872;2023-09-30T14:01:14;8.13;;;4.85;;
82475;SDS011;72099;43.176;76.872;2023-09-30T14:04:15;7.63;;;4.25;;
82475;SDS011;72099;43.176;76.872;2023-09-30T14:07:16;7.53;;;4.32;;
82475;SDS011;72099;43.176;76.872;2023-09-30T14:10:19;5.90;;;3.88;;
82475;SDS011;72099;43.176;76.872;2023-09-30T14:13:20;7.70;;;4.00;;
82475;SDS011;72099;43.176;76.872;2023-09-30T14:16:21;7.60;;;3.80;;
82475;SDS011;72099;43.176;76.872;2023-09-30T14:19:22;6.63;;;3.80;;
82475;SDS011;72099;43.176;76.872;2023-09-30T14:22:24;7.78;;;4.00;;
82475;SDS011;72099;43.176;76.872;2023-09-30T14:25:25;8.38;;;4.45;;
82475;SDS011;72099;43.176;76.872;2023-09-30T14:28:26;7.45;;;4.00;;
82475;SDS011;72099;43.176;76.872;2023-09-30T14:31:27;8.05;;;4.05;;
82475;SDS011;72099;43.176;76.872;2023-09-30T14:34:28;8.15;;;4.20;;
82475;SDS011;72099;43.176;76.872;2023-09-30T14:37:29;9.80;;;3.78;;
82475;SDS011;72099;43.176;76.872;2023-09-30T14:40:30;7.55;;;3.83;;
82475;SDS011;72099;43.176;76.872;2023-09-30T14:43:36;5.95;;;3.63;;
82475;SDS011;72099;43.176;76.872;2023-09-30T14:46:38;7.88;;;3.85;;
82475;SDS011;72099;43.176;76.872;2023-09-30T14:49:39;6.30;;;3.50;;
82475;SDS011;72099;43.176;76.872;2023-09-30T14:52:41;15.98;;;9.00;;
82475;SDS011;72099;43.176;76.872;2023-09-30T14:55:42;9.13;;;4.75;;
82475;SDS011;72099;43.176;76.872;2023-09-30T14:58:43;7.00;;;4.03;;
82475;SDS011;72099;43.176;76.872;2023-09-30T15:01:44;4.93;;;2.80;;
82475;SDS011;72099;43.176;76.872;2023-09-30T15:04:45;6.40;;;2.80;;
82475;SDS011;72099;43.176;76.872;2023-09-30T15:07:46;4.72;;;2.60;;
82475;SDS011;72099;43.176;76.872;2023-09-30T15:10:47;6.18;;;2.78;;
82475;SDS011;72099;43.176;76.872;2023-09-30T15:13:48;6.50;;;2.90;;
82475;SDS011;72099;43.176;76.872;2023-09-30T15:16:50;5.45;;;3.00;;
82475;SDS011;72099;43.176;76.872;2023-09-30T15:19:51;5.13;;;2.70;;
82475;SDS011;72099;43.176;76.872;2023-09-30T15:22:52;4.95;;;2.75;;
82475;SDS011;72099;43.176;76.872;2023-09-30T15:25:53;7.45;;;3.65;;
82475;SDS011;72099;43.176;76.872;2023-09-30T15:28:54;6.63;;;3.38;;
82475;SDS011;72099;43.176;76.872;2023-09-30T15:31:55;7.65;;;3.63;;
82475;SDS011;72099;43.176;76.872;2023-09-30T15:34:56;5.97;;;3.72;;
82475;SDS011;72099;43.176;76.872;2023-09-30T15:37:57;6.63;;;3.53;;
82475;SDS011;72099;43.176;76.872;2023-09-30T15:40:58;6.30;;;3.25;;
82475;SDS011;72099;43.176;76.872;2023-09-30T15:44:01;7.50;;;2.70;;
82475;SDS011;72099;43.176;76.872;2023-09-30T15:47:04;4.70;;;2.78;;
82475;SDS011;72099;43.176;76.872;2023-09-30T15:50:07;6.45;;;2.92;;
82475;SDS011;72099;43.176;76.872;2023-09-30T15:53:08;4.82;;;2.83;;
82475;SDS011;72099;43.176;76.872;2023-09-30T15:56:09;8.00;;;3.78;;
82475;SDS011;72099;43.176;76.872;2023-09-30T15:59:10;6.15;;;3.17;;
82475;SDS011;72099;43.176;76.872;2023-09-30T16:02:11;10.10;;;4.47;;
82475;SDS011;72099;43.176;76.872;2023-09-30T16:05:13;12.70;;;5.93;;
82475;SDS011;72099;43.176;76.872;2023-09-30T16:08:15;13.55;;;6.07;;
82475;SDS011;72099;43.176;76.872;2023-09-30T16:11:16;14.25;;;6.65;;
82475;SDS011;72099;43.176;76.872;2023-09-30T16:14:17;10.98;;;5.43;;
82475;SDS011;72099;43.176;76.872;2023-09-30T16:17:18;12.52;;;5.30;;
82475;SDS011;72099;43.176;76.872;2023-09-30T16:20:20;10.68;;;4.45;;
82475;SDS011;72099;43.176;76.872;2023-09-30T16:23:25;9.07;;;4.57;;
82475;SDS011;72099;43.176;76.872;2023-09-30T16:29:27;7.40;;;3.92;;
82475;SDS011;72099;43.176;76.872;2023-09-30T16:35:31;5.45;;;3.22;;
82475;SDS011;72099;43.176;76.872;2023-09-30T16:41:33;4.82;;;2.42;;
82475;SDS011;72099;43.176;76.872;2023-09-30T16:47:34;5.05;;;2.83;;
82475;SDS011;72099;43.176;76.872;2023-09-30T16:50:35;5.15;;;3.08;;
82475;SDS011;72099;43.176;76.872;2023-09-30T16:53:37;6.20;;;3.70;;
82475;SDS011;72099;43.176;76.872;2023-09-30T16:59:39;5.22;;;3.08;;
82475;SDS011;72099;43.176;76.872;2023-09-30T17:05:41;4.05;;;2.42;;
82475;SDS011;72099;43.176;76.872;2023-09-30T17:08:43;3.60;;;2.20;;
82475;SDS011;72099;43.176;76.872;2023-09-30T17:14:44;4.45;;;2.25;;
82475;SDS011;72099;43.176;76.872;2023-09-30T17:17:46;3.95;;;2.13;;
82475;SDS011;72099;43.176;76.872;2023-09-30T17:23:47;3.42;;;2.05;;
82475;SDS011;72099;43.176;76.872;2023-09-30T17:29:49;2.15;;;1.70;;
82475;SDS011;72099;43.176;76.872;2023-09-30T17:36:15;2.90;;;1.83;;
82475;SDS011;72099;43.176;76.872;2023-09-30T17:39:16;2.67;;;1.92;;
82475;SDS011;72099;43.176;76.872;2023-09-30T17:48:49;3.85;;;1.80;;
82475;SDS011;72099;43.176;76.872;2023-09-30T17:54:50;3.08;;;1.77;;
82475;SDS011;72099;43.176;76.872;2023-09-30T18:00:52;5.18;;;2.70;;
82475;SDS011;72099;43.176;76.872;2023-09-30T18:06:53;3.35;;;2.03;;
82475;SDS011;72099;43.176;76.872;2023-09-30T18:16:33;4.97;;;2.60;;
82475;SDS011;72099;43.176;76.872;2023-09-30T18:19:36;4.68;;;2.88;;
82475;SDS011;72099;43.176;76.872;2023-09-30T18:22:37;5.28;;;2.80;;
82475;SDS011;72099;43.176;76.872;2023-09-30T18:25:40;4.35;;;2.40;;
82475;SDS011;72099;43.176;76.872;2023-09-30T18:28:41;4.18;;;2.55;;
82475;SDS011;72099;43.176;76.872;2023-09-30T18:35:09;4.13;;;2.33;;
82475;SDS011;72099;43.176;76.872;2023-09-30T18:38:10;3.72;;;2.30;;
82475;SDS011;72099;43.176;76.872;2023-09-30T18:41:14;3.78;;;1.95;;
82475;SDS011;72099;43.176;76.872;2023-09-30T18:44:16;4.03;;;2.15;;
82475;SDS011;72099;43.176;76.872;2023-09-30T18:47:17;9.07;;;5.70;;
82475;SDS011;72099;43.176;76.872;2023-09-30T18:50:18;6.07;;;3.33;;
82475;SDS011;72099;43.176;76.872;2023-09-30T18:53:19;5.80;;;3.22;;
82475;SDS011;72099;43.176;76.872;2023-09-30T18:59:21;4.10;;;2.00;;
82475;SDS011;72099;43.176;76.872;2023-09-30T19:02:22;3.28;;;2.00;;
82475;SDS011;72099;43.176;76.872;2023-09-30T19:05:24;3.78;;;2.00;;
82475;SDS011;72099;43.176;76.872;2023-09-30T19:08:25;3.22;;;2.00;;
82475;SDS011;72099;43.176;76.872;2023-09-30T19:11:26;3.33;;;1.98;;
82475;SDS011;72099;43.176;76.872;2023-09-30T19:14:27;3.83;;;2.30;;
82475;SDS011;72099;43.176;76.872;2023-09-30T19:17:28;4.50;;;2.67;;
82475;SDS011;72099;43.176;76.872;2023-09-30T19:20:31;4.05;;;2.20;;
82475;SDS011;72099;43.176;76.872;2023-09-30T19:23:32;3.10;;;2.03;;
82475;SDS011;72099;43.176;76.872;2023-09-30T19:29:34;3.20;;;1.92;;
82475;SDS011;72099;43.176;76.872;2023-09-30T19:36:11;2.65;;;1.65;;
82475;SDS011;72099;43.176;76.872;2023-09-30T19:39:14;2.95;;;1.73;;
82475;SDS011;72099;43.176;76.872;2023-09-30T19:45:16;2.95;;;1.67;;
82475;SDS011;72099;43.176;76.872;2023-09-30T19:48:16;3.47;;;2.00;;
82475;SDS011;72099;43.176;76.872;2023-09-30T19:51:23;2.83;;;1.63;;
82475;SDS011;72099;43.176;76.872;2023-09-30T19:54:24;3.08;;;1.90;;
82475;SDS011;72099;43.176;76.872;2023-09-30T19:57:26;2.63;;;1.65;;
82475;SDS011;72099;43.176;76.872;2023-09-30T20:00:27;4.43;;;2.13;;
82475;SDS011;72099;43.176;76.872;2023-09-30T20:06:29;2.60;;;1.77;;
82475;SDS011;72099;43.176;76.872;2023-09-30T20:12:31;2.10;;;1.50;;
82475;SDS011;72099;43.176;76.872;2023-09-30T20:15:33;2.47;;;1.65;;
82475;SDS011;72099;43.176;76.872;2023-09-30T20:18:35;4.20;;;1.85;;
82475;SDS011;72099;43.176;76.872;2023-09-30T20:24:37;2.40;;;1.50;;
82475;SDS011;72099;43.176;76.872;2023-09-30T20:30:41;3.38;;;1.90;;
82475;SDS011;72099;43.176;76.872;2023-09-30T20:36:45;4.35;;;2.00;;
82475;SDS011;72099;43.176;76.872;2023-09-30T20:39:47;2.85;;;1.63;;
82475;SDS011;72099;43.176;76.872;2023-09-30T20:42:48;2.58;;;1.70;;
82475;SDS011;72099;43.176;76.872;2023-09-30T20:48:49;3.28;;;1.75;;
82475;SDS011;72099;43.176;76.872;2023-09-30T20:51:50;4.45;;;1.83;;
82475;SDS011;72099;43.176;76.872;2023-09-30T20:54:51;2.65;;;1.80;;
82475;SDS011;72099;43.176;76.872;2023-09-30T20:57:52;2.88;;;1.63;;
82475;SDS011;72099;43.176;76.872;2023-09-30T21:00:55;2.35;;;1.70;;
82475;SDS011;72099;43.176;76.872;2023-09-30T21:03:57;3.38;;;1.80;;
82475;SDS011;72099;43.176;76.872;2023-09-30T21:09:59;3.88;;;1.90;;